Time;durP1;ratioP1;P1;durP2;ratioP2;P2;SDS_P1;SDS_P2;PMS_P1;PMS_P2;Temp;Humidity;BMP_temperature;BMP_pressure;BME280_temperature;BME280_humidity;BME280_pressure;Samples;Min_cycle;Max_cycle;Signal;HPM_P1;HPM_P2
2021/07/05 00:00:22;;;;;;;3.10;2.90;;;16.50;99.90;;;;;;4983165;28;20241;-75
2021/07/05 00:02:50;;;;;;;3.20;3.00;;;16.50;99.90;;;;;;4985375;28;20220;-75
2021/07/05 00:05:18;;;;;;;3.50;3.30;;;16.50;99.90;;;;;;4985966;28;20307;-75
2021/07/05 00:07:47;;;;;;;3.80;3.50;;;16.50;99.90;;;;;;4986283;28;20624;-75
2021/07/05 00:10:15;;;;;;;3.17;2.97;;;16.50;99.90;;;;;;4980772;28;20213;-75
2021/07/05 00:12:45;;;;;;;2.83;2.63;;;16.50;99.90;;;;;;4984524;28;20219;-75
2021/07/05 00:15:13;;;;;;;3.10;2.90;;;16.50;99.90;;;;;;4984113;28;20190;-75
2021/07/05 00:17:41;;;;;;;3.60;3.40;;;16.50;99.90;;;;;;4982638;28;20198;-75
2021/07/05 00:20:10;;;;;;;3.13;2.93;;;16.50;99.90;;;;;;4982537;28;20190;-75
2021/07/05 00:22:37;;;;;;;3.10;2.90;;;16.50;99.90;;;;;;4978177;28;20217;-75
2021/07/05 00:25:05;;;;;;;3.13;2.93;;;16.50;99.90;;;;;;4986052;28;20189;-75
2021/07/05 00:27:32;;;;;;;3.67;2.70;;;16.50;99.90;;;;;;4981089;28;20196;-75
2021/07/05 00:29:59;;;;;;;2.87;2.67;;;16.50;99.90;;;;;;4983116;28;20334;-75
2021/07/05 00:32:26;;;;;;;2.53;2.43;;;16.50;99.90;;;;;;4982853;28;20215;-75
2021/07/05 00:34:53;;;;;;;2.47;2.30;;;16.50;99.90;;;;;;4978650;28;20190;-75
2021/07/05 00:37:21;;;;;;;2.90;2.30;;;16.50;99.90;;;;;;4984722;28;20197;-75
2021/07/05 00:39:48;;;;;;;2.60;2.50;;;16.50;99.90;;;;;;4985776;28;20185;-75
2021/07/05 00:42:15;;;;;;;2.73;2.53;;;16.40;99.90;;;;;;4998836;28;20280;-75
2021/07/05 00:44:41;;;;;;;3.40;3.10;;;16.40;99.90;;;;;;4979904;28;20261;-75
2021/07/05 00:47:09;;;;;;;3.40;3.20;;;16.40;99.90;;;;;;4983634;28;20649;-75
2021/07/05 00:49:36;;;;;;;4.10;3.60;;;16.40;99.90;;;;;;5006168;28;20219;-75
2021/07/05 00:52:03;;;;;;;3.90;3.60;;;16.40;99.90;;;;;;4991218;28;20888;-75
2021/07/05 00:54:31;;;;;;;3.93;3.63;;;16.40;99.90;;;;;;4986399;28;20194;-75
2021/07/05 00:56:58;;;;;;;3.87;3.57;;;16.40;99.90;;;;;;4974709;28;20576;-75
2021/07/05 00:59:25;;;;;;;3.50;3.30;;;16.50;99.90;;;;;;4985593;28;20705;-75
2021/07/05 01:01:52;;;;;;;3.60;3.40;;;16.40;99.90;;;;;;4983353;28;20218;-75
2021/07/05 01:04:19;;;;;;;3.50;3.23;;;16.50;99.90;;;;;;4996264;28;20545;-75
2021/07/05 01:06:46;;;;;;;3.20;3.00;;;16.40;99.90;;;;;;4978993;28;20253;-75
2021/07/05 01:09:13;;;;;;;3.50;3.30;;;16.50;99.90;;;;;;4980318;28;20203;-75
2021/07/05 01:11:41;;;;;;;3.40;3.20;;;16.50;99.90;;;;;;4984119;28;20227;-75
2021/07/05 01:14:08;;;;;;;2.90;2.80;;;16.40;99.90;;;;;;4980064;28;20182;-75
2021/07/05 01:16:35;;;;;;;3.50;3.20;;;16.40;99.90;;;;;;4982431;28;20197;-75
2021/07/05 01:19:02;;;;;;;3.40;3.20;;;16.40;99.90;;;;;;4983926;28;20196;-75
2021/07/05 01:21:30;;;;;;;3.40;3.20;;;16.30;99.90;;;;;;4982095;28;20274;-75
2021/07/05 01:23:56;;;;;;;3.97;3.67;;;16.30;99.90;;;;;;4986127;28;20202;-75
2021/07/05 01:26:24;;;;;;;2.60;2.40;;;16.30;99.90;;;;;;4984593;28;20289;-76
2021/07/05 01:28:50;;;;;;;2.13;2.03;;;16.30;99.90;;;;;;4979715;28;20213;-75
2021/07/05 01:31:17;;;;;;;2.47;2.27;;;16.30;99.90;;;;;;4979478;28;20698;-75
2021/07/05 01:33:46;;;;;;;2.70;2.07;;;16.20;99.90;;;;;;4989470;28;20287;-75
2021/07/05 01:36:13;;;;;;;2.03;1.93;;;16.20;99.90;;;;;;4986657;28;20206;-75
2021/07/05 01:38:43;;;;;;;2.90;2.50;;;16.30;99.90;;;;;;4974924;28;20220;-75
2021/07/05 01:41:10;;;;;;;2.60;2.40;;;16.20;99.90;;;;;;4978233;28;20306;-75
2021/07/05 01:43:37;;;;;;;2.40;2.30;;;16.20;99.90;;;;;;4982035;28;20203;-75
2021/07/05 01:46:05;;;;;;;2.27;2.13;;;16.20;99.90;;;;;;4982823;28;20193;-75
2021/07/05 01:48:32;;;;;;;2.30;2.20;;;16.20;99.90;;;;;;4981751;28;20197;-75
2021/07/05 01:50:59;;;;;;;2.90;2.70;;;16.20;99.90;;;;;;4982570;28;20249;-75
2021/07/05 01:53:25;;;;;;;2.70;2.60;;;16.20;99.90;;;;;;4980607;28;20256;-75
2021/07/05 01:55:54;;;;;;;3.90;2.30;;;16.10;99.90;;;;;;4982336;28;20537;-75
2021/07/05 01:58:21;;;;;;;2.70;2.50;;;16.10;99.90;;;;;;4979295;28;20606;-75
2021/07/05 02:00:49;;;;;;;3.77;3.57;;;16.00;99.90;;;;;;4984082;28;20219;-75
2021/07/05 02:03:17;;;;;;;2.90;2.70;;;16.00;99.90;;;;;;4982197;28;20194;-75
2021/07/05 02:05:44;;;;;;;3.23;3.03;;;15.90;99.90;;;;;;4980723;28;20195;-75
2021/07/05 02:08:13;;;;;;;6.17;5.77;;;15.90;99.90;;;;;;4990241;28;20209;-75
2021/07/05 02:10:41;;;;;;;2.80;2.60;;;15.80;99.90;;;;;;4981844;28;20213;-75
2021/07/05 02:13:12;;;;;;;2.50;2.30;;;15.80;99.90;;;;;;4985094;28;20241;-75
2021/07/05 02:15:39;;;;;;;3.33;3.13;;;15.70;99.90;;;;;;4977859;28;20775;-75
2021/07/05 02:18:06;;;;;;;2.90;2.53;;;15.70;99.90;;;;;;4979263;28;20202;-76
2021/07/05 02:20:34;;;;;;;2.53;2.33;;;15.70;99.90;;;;;;4982437;28;20547;-76
2021/07/05 02:23:01;;;;;;;2.90;2.70;;;15.70;99.90;;;;;;4983888;28;20192;-75
2021/07/05 02:25:31;;;;;;;3.03;2.50;;;15.70;99.90;;;;;;4981802;28;20193;-76
2021/07/05 02:27:59;;;;;;;2.50;2.30;;;15.80;99.90;;;;;;4980295;28;20198;-76
2021/07/05 02:30:29;;;;;;;3.97;2.73;;;15.90;99.90;;;;;;4981746;28;20221;-76
2021/07/05 02:32:57;;;;;;;2.67;2.47;;;15.90;99.90;;;;;;4984308;28;20209;-75
2021/07/05 02:35:26;;;;;;;2.73;2.53;;;15.90;99.90;;;;;;4979367;28;20240;-77
2021/07/05 02:37:54;;;;;;;3.50;2.70;;;16.00;99.90;;;;;;4999640;28;20193;-77
2021/07/05 02:40:25;;;;;;;2.90;2.70;;;15.90;99.90;;;;;;4982106;28;20243;-77
2021/07/05 02:42:52;;;;;;;4.27;3.37;;;16.00;99.90;;;;;;4980728;28;20241;-77
2021/07/05 02:45:22;;;;;;;5.17;3.60;;;16.00;99.90;;;;;;4981342;28;20206;-77
2021/07/05 02:47:53;;;;;;;4.33;3.60;;;16.10;99.90;;;;;;4987721;28;20276;-77
2021/07/05 02:50:20;;;;;;;4.70;3.77;;;16.00;99.90;;;;;;4986946;28;20185;-79
2021/07/05 02:52:48;;;;;;;5.10;3.67;;;16.00;99.90;;;;;;4999813;23;20225;-79
2021/07/05 02:55:16;;;;;;;6.57;4.40;;;16.00;99.90;;;;;;4971903;28;20201;-77
2021/07/05 02:57:44;;;;;;;7.07;3.90;;;16.10;99.90;;;;;;4969792;28;20199;-78
2021/07/05 03:00:13;;;;;;;5.13;3.73;;;16.10;99.90;;;;;;4972959;28;20224;-78
2021/07/05 03:02:41;;;;;;;3.60;3.30;;;16.10;99.90;;;;;;4975508;28;20670;-78
2021/07/05 03:05:11;;;;;;;3.37;3.03;;;16.10;99.90;;;;;;4972577;28;20575;-80
2021/07/05 03:07:38;;;;;;;4.37;3.30;;;16.10;99.90;;;;;;4975343;28;20193;-80
2021/07/05 03:10:07;;;;;;;5.17;3.50;;;16.10;99.90;;;;;;4976532;28;20194;-79
2021/07/05 03:12:34;;;;;;;4.63;2.97;;;16.10;99.90;;;;;;4975585;28;20222;-79
2021/07/05 03:15:00;;;;;;;6.37;3.60;;;16.10;99.90;;;;;;4975509;28;20217;-78
2021/07/05 03:17:28;;;;;;;3.40;3.10;;;16.10;99.90;;;;;;4975626;28;20194;-79
2021/07/05 03:19:55;;;;;;;3.40;3.10;;;16.10;99.90;;;;;;4975068;28;20636;-77
2021/07/05 03:22:23;;;;;;;3.60;3.30;;;16.10;99.90;;;;;;4975314;28;20222;-78
2021/07/05 03:24:49;;;;;;;4.77;3.80;;;16.10;99.90;;;;;;4975550;28;20190;-79
2021/07/05 03:27:16;;;;;;;3.33;3.03;;;16.00;99.90;;;;;;4977252;28;20198;-78
2021/07/05 03:29:43;;;;;;;6.40;3.43;;;16.00;99.90;;;;;;4975695;28;20713;-77
2021/07/05 03:32:11;;;;;;;5.07;3.30;;;16.00;99.90;;;;;;4974657;28;20206;-78
2021/07/05 03:34:38;;;;;;;5.40;3.50;;;16.00;99.90;;;;;;4975380;28;20190;-78
2021/07/05 03:37:05;;;;;;;7.37;3.33;;;16.00;99.90;;;;;;4974636;28;20202;-78
2021/07/05 03:39:33;;;;;;;3.67;3.10;;;16.00;99.90;;;;;;4985465;28;20210;-77
2021/07/05 03:42:00;;;;;;;3.77;3.03;;;16.00;99.90;;;;;;4975893;28;20225;-78
2021/07/05 03:44:27;;;;;;;3.30;3.00;;;15.90;99.90;;;;;;4976754;28;20193;-78
2021/07/05 03:46:53;;;;;;;3.20;2.90;;;15.90;99.90;;;;;;4974300;28;20244;-78
2021/07/05 03:49:20;;;;;;;2.90;2.70;;;16.00;99.90;;;;;;4975436;28;20201;-78
2021/07/05 03:51:47;;;;;;;3.20;2.73;;;16.10;99.90;;;;;;4980370;28;20219;-78
2021/07/05 03:54:15;;;;;;;2.90;2.70;;;16.10;99.90;;;;;;4980162;28;20208;-78
2021/07/05 03:56:43;;;;;;;2.80;2.60;;;16.20;99.90;;;;;;4988382;28;20206;-79
2021/07/05 03:59:10;;;;;;;2.70;2.50;;;16.30;99.90;;;;;;4978683;28;20250;-79
2021/07/05 04:01:37;;;;;;;2.90;2.70;;;16.40;99.90;;;;;;4976185;28;20222;-79
2021/07/05 04:04:04;;;;;;;2.70;2.60;;;16.40;99.90;;;;;;4977954;28;20662;-79
2021/07/05 04:06:31;;;;;;;3.00;2.80;;;16.50;99.90;;;;;;4975296;28;20549;-79
2021/07/05 04:09:00;;;;;;;2.70;2.50;;;16.50;99.90;;;;;;4972573;28;20599;-78
2021/07/05 04:11:27;;;;;;;3.00;2.80;;;16.50;99.90;;;;;;4977143;28;20292;-78
2021/07/05 04:13:55;;;;;;;2.63;2.30;;;16.50;99.90;;;;;;4975799;28;20657;-78
2021/07/05 04:16:22;;;;;;;2.43;2.30;;;16.70;99.90;;;;;;4986509;28;20253;-78
2021/07/05 04:18:49;;;;;;;2.70;2.50;;;16.70;99.90;;;;;;4974374;28;20203;-78
2021/07/05 04:21:16;;;;;;;2.70;2.43;;;16.80;99.90;;;;;;4975349;28;20222;-78
2021/07/05 04:23:43;;;;;;;2.80;2.60;;;16.80;99.90;;;;;;4975495;28;20193;-79
2021/07/05 04:26:10;;;;;;;6.67;6.17;;;16.80;99.90;;;;;;4976403;28;20223;-79
2021/07/05 04:28:37;;;;;;;4.63;4.33;;;16.90;99.90;;;;;;4974746;28;20197;-79
2021/07/05 04:31:05;;;;;;;3.00;2.80;;;17.00;99.90;;;;;;4976206;28;20548;-78
2021/07/05 04:33:32;;;;;;;3.67;3.20;;;17.00;99.90;;;;;;4974892;28;20195;-79
2021/07/05 04:35:59;;;;;;;2.80;2.70;;;17.00;99.90;;;;;;4987684;28;20222;-79
2021/07/05 04:38:26;;;;;;;4.40;4.20;;;17.00;99.90;;;;;;4974798;28;20202;-78
2021/07/05 04:40:53;;;;;;;3.27;3.07;;;17.00;99.90;;;;;;4974627;28;20688;-79
2021/07/05 04:43:20;;;;;;;5.27;4.97;;;17.00;99.90;;;;;;4982191;28;20240;-79
2021/07/05 04:45:48;;;;;;;5.00;4.70;;;17.00;99.90;;;;;;4976022;28;20216;-79
2021/07/05 04:48:16;;;;;;;5.50;5.20;;;17.00;99.90;;;;;;4973230;28;20199;-78
2021/07/05 04:50:43;;;;;;;5.47;5.07;;;17.10;99.90;;;;;;4976062;28;20213;-78
2021/07/05 04:53:10;;;;;;;2.90;2.80;;;17.20;99.90;;;;;;4975587;28;20219;-79
2021/07/05 04:55:36;;;;;;;6.67;6.20;;;17.40;99.90;;;;;;4974816;28;20212;-78
2021/07/05 04:58:03;;;;;;;5.90;5.50;;;17.80;99.90;;;;;;4974160;28;20203;-79
2021/07/05 05:00:34;;;;;;;5.23;4.93;;;18.40;99.90;;;;;;4975573;28;20218;-79
2021/07/05 05:03:03;;;;;;;2.50;2.40;;;19.00;99.90;;;;;;4973866;28;20218;-79
2021/07/05 05:05:32;;;;;;;2.37;2.27;;;19.40;99.90;;;;;;4975357;28;20194;-80
2021/07/05 05:08:00;;;;;;;3.60;2.50;;;19.50;99.90;;;;;;4973417;28;20697;-79
2021/07/05 05:10:28;;;;;;;5.33;4.37;;;19.50;99.90;;;;;;4973766;28;20861;-78
2021/07/05 05:12:55;;;;;;;2.30;2.20;;;19.40;99.90;;;;;;4982636;28;20233;-79
2021/07/05 05:15:22;;;;;;;5.00;4.70;;;19.50;99.90;;;;;;4975146;28;20651;-79
2021/07/05 05:17:49;;;;;;;3.30;3.10;;;19.50;99.90;;;;;;4973385;28;20194;-79
2021/07/05 05:20:17;;;;;;;4.30;4.10;;;19.50;99.90;;;;;;4989745;28;20543;-78
2021/07/05 05:22:46;;;;;;;4.57;4.27;;;19.40;99.90;;;;;;4973229;28;20222;-79
2021/07/05 05:25:14;;;;;;;3.80;3.60;;;19.30;99.90;;;;;;4973158;28;20286;-79
2021/07/05 05:27:41;;;;;;;4.53;4.23;;;19.20;99.90;;;;;;4972726;28;20658;-78
2021/07/05 05:30:10;;;;;;;6.10;5.70;;;19.00;99.90;;;;;;4983783;28;20651;-79
2021/07/05 05:32:38;;;;;;;9.80;9.20;;;18.80;99.90;;;;;;4972763;28;20214;-79
2021/07/05 05:35:05;;;;;;;8.90;8.40;;;18.70;99.90;;;;;;4974586;28;20190;-79
2021/07/05 05:37:33;;;;;;;8.67;8.07;;;18.60;99.90;;;;;;4969502;28;20655;-79
2021/07/05 05:40:01;;;;;;;9.40;8.90;;;18.50;99.90;;;;;;4974338;28;20609;-79
2021/07/05 05:42:28;;;;;;;9.40;8.90;;;18.50;99.90;;;;;;4972412;28;20245;-78
2021/07/05 05:44:54;;;;;;;2.30;2.20;;;18.50;99.90;;;;;;4972511;28;20241;-79
2021/07/05 05:47:21;;;;;;;4.10;3.87;;;18.50;99.90;;;;;;4972935;28;20198;-79
2021/07/05 05:49:48;;;;;;;7.17;6.77;;;18.40;99.90;;;;;;4974386;28;20198;-79
2021/07/05 05:52:15;;;;;;;7.37;6.97;;;18.40;99.90;;;;;;4973755;28;20216;-78
2021/07/05 05:54:42;;;;;;;8.80;8.30;;;18.40;99.90;;;;;;4972727;28;20197;-79
2021/07/05 05:57:25;;;;;;;8.40;7.90;;;18.40;99.90;;;;;;4972170;28;20194;-79
2021/07/05 05:59:52;;;;;;;8.20;7.80;;;18.40;99.90;;;;;;4972381;28;20220;-78
2021/07/05 06:02:18;;;;;;;8.50;8.00;;;18.40;99.90;;;;;;4972725;28;20230;-79
2021/07/05 06:04:45;;;;;;;8.30;7.80;;;18.40;99.90;;;;;;4973617;28;20211;-79
2021/07/05 06:07:12;;;;;;;8.23;7.73;;;18.40;99.90;;;;;;4971936;28;20200;-79
2021/07/05 06:09:39;;;;;;;8.60;8.10;;;18.40;99.90;;;;;;4973351;28;20197;-79
2021/07/05 06:12:06;;;;;;;8.50;8.00;;;18.40;99.90;;;;;;4972058;28;20240;-78
2021/07/05 06:14:35;;;;;;;8.20;7.70;;;18.40;99.90;;;;;;4972228;28;20186;-79
2021/07/05 06:17:02;;;;;;;8.40;7.90;;;18.40;99.90;;;;;;4973126;28;20194;-79
2021/07/05 06:19:28;;;;;;;8.40;7.90;;;18.50;99.90;;;;;;4972229;28;20202;-79
2021/07/05 06:21:55;;;;;;;7.70;7.30;;;18.60;99.90;;;;;;4979146;28;20223;-79
2021/07/05 06:24:22;;;;;;;7.90;7.40;;;18.60;99.90;;;;;;4967882;28;20213;-79
2021/07/05 06:26:49;;;;;;;7.90;7.50;;;18.60;99.90;;;;;;4971959;28;20202;-78
2021/07/05 06:29:16;;;;;;;8.00;7.30;;;18.60;99.90;;;;;;4973092;28;20185;-78
2021/07/05 06:31:44;;;;;;;6.40;6.00;;;18.60;99.90;;;;;;4973430;28;20213;-79
2021/07/05 06:34:11;;;;;;;2.50;2.40;;;18.60;99.90;;;;;;4972301;28;20701;-79
2021/07/05 06:36:38;;;;;;;2.80;2.60;;;18.70;99.90;;;;;;4973201;28;20197;-79
2021/07/05 06:39:05;;;;;;;6.30;5.90;;;18.70;99.90;;;;;;4966775;28;20251;-79
2021/07/05 06:41:32;;;;;;;5.40;5.00;;;18.80;99.90;;;;;;4975327;28;20619;-80
2021/07/05 06:43:59;;;;;;;6.53;6.07;;;18.80;99.90;;;;;;4976856;28;20215;-79
2021/07/05 06:46:26;;;;;;;7.57;7.00;;;18.90;99.90;;;;;;4976116;28;20280;-79
2021/07/05 06:48:54;;;;;;;8.37;7.80;;;19.00;99.90;;;;;;4976695;28;20209;-79
2021/07/05 06:51:22;;;;;;;7.70;7.30;;;19.10;99.90;;;;;;4976716;28;20696;-79
2021/07/05 06:53:48;;;;;;;8.50;7.80;;;19.10;99.90;;;;;;4976133;28;20229;-79
2021/07/05 06:56:15;;;;;;;7.30;6.80;;;19.20;99.90;;;;;;4975905;28;20195;-79
2021/07/05 06:58:42;;;;;;;6.77;6.37;;;19.20;99.90;;;;;;4975420;28;20201;-79
2021/07/05 07:01:09;;;;;;;7.40;6.80;;;19.20;99.90;;;;;;4976449;28;20226;-79
2021/07/05 07:03:36;;;;;;;7.00;6.50;;;19.20;99.90;;;;;;4976786;28;20217;-79
2021/07/05 07:06:04;;;;;;;7.40;6.90;;;19.20;99.90;;;;;;4975975;28;20579;-79
2021/07/05 07:08:31;;;;;;;6.43;6.03;;;19.20;99.90;;;;;;4976546;28;20184;-78
2021/07/05 07:10:58;;;;;;;4.20;3.80;;;19.20;99.90;;;;;;4969268;28;20674;-79
2021/07/05 07:13:24;;;;;;;6.30;5.90;;;19.30;99.90;;;;;;4977222;28;20182;-79
2021/07/05 07:15:53;;;;;;;6.20;5.70;;;19.30;99.90;;;;;;4976632;28;20206;-79
2021/07/05 07:18:44;;;;;;;6.30;5.90;;;19.40;99.90;;;;;;4976316;28;20203;-79
2021/07/05 07:21:13;;;;;;;7.20;6.60;;;19.50;99.90;;;;;;4975500;28;20214;-79
2021/07/05 07:23:40;;;;;;;6.50;6.13;;;19.50;99.90;;;;;;4976303;28;20213;-79
2021/07/05 07:26:07;;;;;;;3.90;3.60;;;19.60;99.90;;;;;;4975226;28;20206;-79
2021/07/05 07:28:34;;;;;;;4.60;4.30;;;19.60;99.90;;;;;;4974526;28;20197;-79
2021/07/05 07:31:01;;;;;;;3.33;3.03;;;19.70;99.90;;;;;;4976891;28;20540;-79
2021/07/05 07:33:27;;;;;;;3.80;3.60;;;19.70;99.90;;;;;;4976177;28;20272;-79
2021/07/05 07:35:56;;;;;;;3.17;2.87;;;19.80;99.90;;;;;;4975100;28;20196;-79
2021/07/05 07:38:26;;;;;;;6.70;6.20;;;19.90;99.90;;;;;;4976192;28;20210;-79
2021/07/05 07:40:54;;;;;;;4.70;4.30;;;20.00;99.90;;;;;;4974579;28;20207;-79
2021/07/05 07:43:21;;;;;;;6.33;5.93;;;20.10;99.90;;;;;;4975382;28;20237;-79
2021/07/05 07:45:48;;;;;;;4.50;4.20;;;20.10;99.90;;;;;;4974626;28;20568;-79
2021/07/05 07:48:15;;;;;;;5.20;4.90;;;20.00;99.90;;;;;;4975460;28;20198;-79
2021/07/05 07:50:42;;;;;;;6.07;5.57;;;20.00;99.90;;;;;;4974527;28;20540;-79
2021/07/05 07:53:08;;;;;;;5.87;5.57;;;19.90;99.90;;;;;;4975046;28;20237;-79
2021/07/05 07:55:37;;;;;;;6.20;5.80;;;20.00;99.90;;;;;;4974436;28;20208;-80
2021/07/05 07:58:04;;;;;;;6.03;5.63;;;20.00;99.90;;;;;;4973858;28;20207;-79
2021/07/05 08:00:32;;;;;;;6.17;5.77;;;20.00;99.90;;;;;;4975287;28;20198;-79
2021/07/05 08:02:59;;;;;;;5.93;5.63;;;20.00;99.90;;;;;;4975075;28;20215;-79
2021/07/05 08:05:26;;;;;;;6.50;6.10;;;19.90;99.90;;;;;;4976883;28;20234;-79
2021/07/05 08:07:53;;;;;;;6.40;6.00;;;20.00;99.90;;;;;;4976876;28;20191;-79
2021/07/05 08:10:20;;;;;;;6.50;6.10;;;20.00;99.90;;;;;;4976559;28;20725;-79
2021/07/05 08:12:48;;;;;;;6.10;5.70;;;20.20;99.90;;;;;;4990865;28;20238;-79
2021/07/05 08:15:16;;;;;;;6.40;6.03;;;20.30;99.90;;;;;;4975451;28;20200;-79
2021/07/05 08:17:43;;;;;;;6.10;5.70;;;20.40;99.90;;;;;;4974009;28;20740;-79
2021/07/05 08:20:11;;;;;;;6.03;5.63;;;20.30;99.90;;;;;;4975405;28;20192;-79
2021/07/05 08:22:39;;;;;;;5.67;5.27;;;20.30;99.90;;;;;;4973665;28;20586;-79
2021/07/05 08:25:08;;;;;;;3.87;3.63;;;20.40;99.90;;;;;;4977756;28;20648;-79
2021/07/05 08:27:35;;;;;;;6.27;5.87;;;20.50;99.90;;;;;;4977887;28;20199;-80
2021/07/05 08:30:05;;;;;;;6.50;6.03;;;20.60;99.90;;;;;;4977913;28;20192;-79
2021/07/05 08:32:33;;;;;;;6.90;6.40;;;20.60;99.90;;;;;;4976368;28;20224;-79
2021/07/05 08:35:00;;;;;;;6.20;5.80;;;20.60;99.90;;;;;;4976039;28;20206;-79
2021/07/05 08:37:27;;;;;;;4.07;3.83;;;20.60;99.90;;;;;;4973829;28;20200;-79
2021/07/05 08:39:54;;;;;;;4.00;3.70;;;20.70;99.90;;;;;;4973523;28;20204;-79
2021/07/05 08:42:24;;;;;;;5.17;4.80;;;20.60;99.90;;;;;;4973102;28;20216;-79
2021/07/05 08:44:51;;;;;;;6.03;5.73;;;20.60;99.90;;;;;;4974641;28;20197;-81
2021/07/05 08:47:20;;;;;;;5.87;5.50;;;20.60;99.90;;;;;;4974372;28;20259;-79
2021/07/05 08:49:47;;;;;;;5.00;4.70;;;20.70;99.90;;;;;;4974693;28;20204;-79
2021/07/05 08:52:14;;;;;;;4.30;4.00;;;20.70;99.90;;;;;;5008616;23;20223;-75
2021/07/05 08:54:41;;;;;;;4.93;4.53;;;20.70;99.90;;;;;;4997259;28;20193;-75
2021/07/05 08:57:26;;;;;;;5.00;4.70;;;20.80;99.90;;;;;;5000606;28;20623;-76
2021/07/05 08:59:53;;;;;;;4.30;4.10;;;20.80;99.90;;;;;;4998138;28;20537;-76
2021/07/05 09:02:21;;;;;;;6.07;5.67;;;20.90;99.90;;;;;;4999209;28;20296;-76
2021/07/05 09:04:48;;;;;;;5.67;5.37;;;21.00;99.90;;;;;;4986725;28;20263;-75
2021/07/05 09:07:15;;;;;;;6.63;6.23;;;21.10;99.90;;;;;;4974510;28;20204;-76
2021/07/05 09:09:58;;;;;;;6.10;5.70;;;21.10;99.90;;;;;;4979004;28;20205;-76
2021/07/05 09:12:25;;;;;;;4.10;3.90;;;21.20;99.90;;;;;;4982422;28;20213;-76
2021/07/05 09:15:05;;;;;;;3.43;3.23;;;21.30;99.90;;;;;;4984692;28;20554;-75
2021/07/05 09:17:35;;;;;;;3.30;3.10;;;21.60;99.90;;;;;;4982345;28;20208;-76
2021/07/05 09:20:03;;;;;;;4.47;4.27;;;21.80;99.90;;;;;;4974346;28;20252;-75
2021/07/05 09:22:30;;;;;;;2.87;2.70;;;22.10;99.90;;;;;;4982689;28;20263;-76
2021/07/05 09:24:58;;;;;;;2.50;2.40;;;22.20;99.90;;;;;;4984867;28;20658;-75
2021/07/05 09:27:33;;;;;;;3.93;3.73;;;22.10;99.90;;;;;;4978308;28;20194;-75
2021/07/05 09:30:07;;;;;;;4.07;3.77;;;21.90;99.90;;;;;;4976043;28;20260;-76
2021/07/05 09:32:35;;;;;;;3.57;3.37;;;21.90;99.90;;;;;;4982326;28;20268;-76
2021/07/05 09:35:13;;;;;;;3.00;2.90;;;21.80;99.90;;;;;;4982585;28;20194;-75
2021/07/05 09:37:52;;;;;;;4.47;4.17;;;21.90;99.90;;;;;;4989655;28;20189;-76
2021/07/05 09:40:19;;;;;;;3.60;3.40;;;22.00;99.90;;;;;;4974190;28;20205;-75
2021/07/05 09:42:47;;;;;;;2.40;2.30;;;22.00;99.90;;;;;;4975312;28;20221;-76
2021/07/05 09:45:16;;;;;;;2.27;2.17;;;22.00;99.90;;;;;;4979672;28;20228;-75
2021/07/05 09:47:45;;;;;;;3.90;3.70;;;21.90;99.90;;;;;;4977014;28;20198;-76
2021/07/05 09:50:16;;;;;;;4.60;4.30;;;21.70;99.90;;;;;;4979580;28;20202;-75
2021/07/05 09:52:43;;;;;;;4.10;3.90;;;21.50;99.90;;;;;;4999176;28;20776;-75
2021/07/05 09:55:13;;;;;;;4.03;3.73;;;21.40;99.90;;;;;;4987931;28;20189;-76
2021/07/05 09:57:49;;;;;;;3.90;3.70;;;21.30;99.90;;;;;;4977443;28;20618;-76
2021/07/05 10:00:20;;;;;;;3.90;3.70;;;21.20;99.90;;;;;;4999845;28;20201;-76
2021/07/05 10:03:02;;;;;;;4.03;3.83;;;21.20;99.90;;;;;;4981678;28;20300;-76
2021/07/05 10:05:33;;;;;;;3.70;3.50;;;21.20;99.90;;;;;;4993049;28;20201;-76
2021/07/05 10:08:06;;;;;;;4.63;3.90;;;21.30;99.90;;;;;;4975575;28;20574;-76
2021/07/05 10:10:34;;;;;;;3.70;3.50;;;21.30;99.90;;;;;;4999556;28;20208;-76
2021/07/05 10:13:02;;;;;;;3.83;3.53;;;21.30;99.90;;;;;;4978810;28;20701;-76
2021/07/05 10:15:31;;;;;;;3.70;3.50;;;21.30;99.90;;;;;;4975763;28;20198;-75
2021/07/05 10:18:00;;;;;;;3.60;3.40;;;21.20;99.90;;;;;;4992406;28;20205;-75
2021/07/05 10:20:28;;;;;;;3.60;3.40;;;21.20;99.90;;;;;;4980314;28;20635;-75
2021/07/05 10:23:00;;;;;;;3.70;3.50;;;21.10;99.90;;;;;;4982731;28;20220;-75
2021/07/05 10:25:29;;;;;;;4.20;4.00;;;21.10;99.90;;;;;;4980370;28;20217;-76
2021/07/05 10:27:56;;;;;;;4.77;4.57;;;21.10;99.90;;;;;;4976662;28;20190;-76
2021/07/05 10:30:24;;;;;;;4.73;4.53;;;21.00;99.90;;;;;;4969960;28;20651;-75
2021/07/05 10:32:52;;;;;;;4.97;4.77;;;21.00;99.90;;;;;;4979742;28;20724;-76
2021/07/05 10:35:32;;;;;;;5.10;4.80;;;21.00;99.90;;;;;;4984861;28;20190;-75
2021/07/05 10:38:02;;;;;;;5.30;5.00;;;20.90;99.90;;;;;;4972513;28;20189;-76
2021/07/05 10:40:38;;;;;;;5.43;5.13;;;20.90;99.90;;;;;;4980051;28;20245;-76
2021/07/05 10:43:06;;;;;;;5.53;5.23;;;21.00;99.90;;;;;;4981324;28;20291;-76
2021/07/05 10:45:41;;;;;;;5.47;5.17;;;21.10;99.90;;;;;;4981415;28;20194;-77
2021/07/05 10:48:08;;;;;;;5.50;5.20;;;21.20;99.90;;;;;;4974773;28;20594;-75
2021/07/05 10:50:56;;;;;;;4.80;4.60;;;21.30;99.90;;;;;;4974597;28;20209;-76
2021/07/05 10:53:54;;;;;;;4.60;4.40;;;21.40;99.90;;;;;;4977569;28;20272;-76
2021/07/05 10:56:30;;;;;;;4.60;4.30;;;21.30;99.90;;;;;;4995082;28;20225;-76
2021/07/05 10:59:13;;;;;;;4.70;4.50;;;21.30;99.90;;;;;;4975603;28;20195;-76
2021/07/05 11:01:41;;;;;;;4.70;4.40;;;21.30;99.90;;;;;;4973927;28;20205;-75
2021/07/05 11:04:21;;;;;;;4.90;4.70;;;21.20;99.90;;;;;;4980886;28;20218;-76
2021/07/05 11:06:50;;;;;;;5.00;4.70;;;21.20;99.90;;;;;;4981328;28;20729;-76
2021/07/05 11:09:22;;;;;;;5.20;4.90;;;21.30;99.90;;;;;;4979589;28;20194;-76
2021/07/05 11:11:52;;;;;;;5.10;4.80;;;21.30;99.90;;;;;;4983140;28;20728;-76
2021/07/05 11:14:22;;;;;;;5.40;5.10;;;21.10;99.90;;;;;;4982187;28;20182;-76
2021/07/05 11:17:08;;;;;;;5.83;5.53;;;21.10;99.90;;;;;;4983426;28;20203;-76
2021/07/05 11:19:47;;;;;;;5.77;5.47;;;21.10;99.90;;;;;;4978221;28;20273;-76
2021/07/05 11:22:34;;;;;;;5.33;5.03;;;21.00;99.90;;;;;;4978467;28;20216;-76
2021/07/05 11:25:05;;;;;;;5.60;5.20;;;20.90;99.90;;;;;;4976093;28;20190;-75
2021/07/05 11:27:46;;;;;;;6.00;5.60;;;20.80;99.90;;;;;;4978468;28;20204;-76
2021/07/05 11:30:22;;;;;;;5.90;5.60;;;20.90;99.90;;;;;;4987877;28;20224;-75
2021/07/05 11:32:51;;;;;;;6.40;5.90;;;21.00;99.90;;;;;;4997601;28;20217;-75
2021/07/05 11:35:37;;;;;;;6.17;5.67;;;21.20;99.90;;;;;;4983629;28;20197;-75
2021/07/05 11:38:12;;;;;;;6.23;5.80;;;21.50;99.90;;;;;;4984178;28;20189;-76
2021/07/05 11:40:41;;;;;;;6.17;5.77;;;22.00;99.90;;;;;;4983501;28;20200;-76
2021/07/05 11:43:09;;;;;;;6.13;5.73;;;22.30;99.90;;;;;;4988700;28;20224;-75
2021/07/05 11:45:50;;;;;;;7.27;5.10;;;22.60;99.90;;;;;;4984803;28;20178;-76
2021/07/05 11:48:53;;;;;;;5.47;5.17;;;22.90;99.90;;;;;;5000386;28;20202;-76
2021/07/05 11:51:23;;;;;;;5.70;5.40;;;23.00;99.90;;;;;;4982039;28;20248;-76
2021/07/05 11:53:54;;;;;;;5.40;5.10;;;22.90;99.90;;;;;;4999516;28;20201;-76
2021/07/05 11:56:33;;;;;;;3.73;3.53;;;23.20;99.90;;;;;;4975664;28;20214;-76
2021/07/05 11:59:01;;;;;;;4.13;3.93;;;23.30;99.90;;;;;;4978834;28;20216;-75
2021/07/05 12:01:29;;;;;;;4.30;4.00;;;23.30;99.90;;;;;;4979596;28;20193;-76
2021/07/05 12:03:57;;;;;;;4.70;4.30;;;23.10;99.90;;;;;;4980065;28;20256;-76
2021/07/05 12:06:24;;;;;;;5.60;5.20;;;22.90;99.90;;;;;;4987938;28;20205;-76
2021/07/05 12:08:54;;;;;;;5.40;5.10;;;22.70;99.90;;;;;;4982715;28;20197;-75
2021/07/05 12:11:37;;;;;;;5.80;5.50;;;22.50;99.90;;;;;;4980421;28;20185;-75
2021/07/05 12:14:10;;;;;;;6.10;5.77;;;22.30;99.90;;;;;;4982175;28;20667;-75
2021/07/05 12:16:38;;;;;;;6.03;5.63;;;22.30;99.90;;;;;;4982316;28;20568;-77
2021/07/05 12:19:06;;;;;;;5.43;5.13;;;22.50;99.90;;;;;;4983422;28;20189;-76
2021/07/05 12:21:34;;;;;;;5.07;4.77;;;22.70;99.90;;;;;;4978372;28;20189;-77
2021/07/05 12:24:12;;;;;;;4.77;4.50;;;22.90;99.90;;;;;;5003366;28;20224;-76
2021/07/05 12:26:44;;;;;;;5.10;4.70;;;23.20;99.90;;;;;;4994690;28;20197;-75
2021/07/05 12:29:15;;;;;;;5.57;5.27;;;23.10;99.90;;;;;;4989550;28;20186;-76
2021/07/05 12:32:00;;;;;;;6.07;5.77;;;23.00;99.90;;;;;;4981926;28;20225;-76
2021/07/05 12:34:56;;;;;;;6.03;5.73;;;22.90;99.90;;;;;;4979883;28;20186;-76
2021/07/05 12:37:28;;;;;;;6.10;5.80;;;22.70;99.90;;;;;;4978510;28;20197;-76
2021/07/05 12:39:59;;;;;;;6.40;6.10;;;22.50;99.90;;;;;;4984378;28;20189;-76
2021/07/05 12:42:39;;;;;;;6.27;5.97;;;22.40;99.90;;;;;;4993709;28;20209;-76
2021/07/05 12:45:16;;;;;;;5.90;5.57;;;22.60;99.90;;;;;;4977403;28;20205;-76
2021/07/05 12:47:55;;;;;;;6.07;5.77;;;22.90;99.90;;;;;;4978105;28;20209;-76
2021/07/05 12:50:25;;;;;;;6.20;5.90;;;23.00;99.90;;;;;;4977984;28;20263;-76
2021/07/05 12:53:08;;;;;;;6.90;6.50;;;22.90;99.90;;;;;;4983998;28;20217;-76
2021/07/05 12:55:39;;;;;;;6.20;5.90;;;23.00;99.90;;;;;;4979690;28;20270;-76
2021/07/05 12:58:05;;;;;;;6.37;5.97;;;22.90;99.90;;;;;;4979012;28;20189;-76